Time;durP1;ratioP1;P1;durP2;ratioP2;P2;SDS_P1;SDS_P2;PMS_P1;PMS_P2;Temp;Humidity;BMP_temperature;BMP_pressure;BME280_temperature;BME280_humidity;BME280_pressure;Samples;Min_cycle;Max_cycle;Signal;HPM_P1;HPM_P2
2022/10/14 00:01:31;;;;;;;;;;;;;;;15.78;83.09;95518.53;5034873;28;1005;-68
2022/10/14 00:03:58;;;;;;;;;;;;;;;15.68;83.40;95517.91;5034763;28;1205;-68
2022/10/14 00:06:26;;;;;;;;;;;;;;;15.82;83.00;95521.66;5033436;28;1911;-68
2022/10/14 00:08:52;;;;;;;;;;;;;;;15.90;82.34;95518.09;5034902;28;981;-68
2022/10/14 00:11:22;;;;;;;;;;;;;;;15.79;81.36;95509.41;5034607;28;1049;-68
2022/10/14 00:13:49;;;;;;;;;;;;;;;15.71;83.02;95514.88;5034672;28;1034;-68
2022/10/14 00:16:26;;;;;;;;;;;;;;;15.80;82.51;95513.78;5034570;28;1238;-68
2022/10/14 00:18:52;;;;;;;;;;;;;;;15.85;82.56;95512.41;5034734;28;1041;-68
2022/10/14 00:21:18;;;;;;;;;;;;;;;15.77;82.10;95511.47;5034652;28;1009;-68
2022/10/14 00:23:45;;;;;;;;;;;;;;;15.86;81.87;95514.91;5034286;28;1232;-68
2022/10/14 00:26:19;;;;;;;;;;;;;;;15.84;81.72;95510.72;5034378;28;1906;-68
2022/10/14 00:28:45;;;;;;;;;;;;;;;15.88;81.59;95503.91;5034289;28;1089;-68
2022/10/14 00:31:11;;;;;;;;;;;;;;;15.90;81.53;95500.03;5034337;28;1419;-68
2022/10/14 00:33:38;;;;;;;;;;;;;;;15.87;81.15;95499.56;5034405;28;1122;-67
2022/10/14 00:36:05;;;;;;;;;;;;;;;15.84;81.16;95502.63;5034328;28;1032;-68
2022/10/14 00:38:31;;;;;;;;;;;;;;;15.76;81.34;95495.47;5034060;28;1057;-68
2022/10/14 00:40:57;;;;;;;;;;;;;;;15.73;81.42;95496.69;5034140;28;1076;-67
2022/10/14 00:43:24;;;;;;;;;;;;;;;15.72;81.17;95484.16;5033098;28;1139;-68
2022/10/14 00:45:50;;;;;;;;;;;;;;;15.66;81.58;95492.19;5033989;28;1993;-67
2022/10/14 00:48:17;;;;;;;;;;;;;;;15.62;81.27;95489.84;5033955;28;1084;-68
2022/10/14 00:50:45;;;;;;;;;;;;;;;15.62;80.05;95480.91;5033846;28;1414;-68
2022/10/14 00:53:12;;;;;;;;;;;;;;;15.57;81.07;95488.72;5034032;28;950;-68
2022/10/14 00:55:39;;;;;;;;;;;;;;;15.54;82.13;95483.72;5033722;28;1120;-68
2022/10/14 00:58:05;;;;;;;;;;;;;;;15.65;80.74;95479.72;5034058;28;1037;-68
2022/10/14 01:00:32;;;;;;;;;;;;;;;15.64;81.58;95478.06;5033900;28;1063;-68
2022/10/14 01:02:58;;;;;;;;;;;;;;;15.60;81.69;95474.88;5033934;28;1017;-68
2022/10/14 01:05:27;;;;;;;;;;;;;;;15.71;81.70;95482.50;5033650;28;1104;-69
2022/10/14 01:07:53;;;;;;;;;;;;;;;15.71;81.56;95473.59;5032144;28;1910;-68
2022/10/14 01:10:28;;;;;;;;;;;;;;;15.72;81.46;95465.31;5033556;28;1066;-68
2022/10/14 01:13:03;;;;;;;;;;;;;;;15.70;81.70;95466.53;5033801;28;1031;-68
2022/10/14 01:15:37;;;;;;;;;;;;;;;15.72;81.62;95461.78;5033533;28;1037;-68
2022/10/14 01:18:06;;;;;;;;;;;;;;;15.73;81.32;95458.94;5033576;28;1096;-68
2022/10/14 01:20:38;;;;;;;;;;;;;;;15.73;81.40;95450.00;5033438;28;945;-68
2022/10/14 01:23:13;;;;;;;;;;;;;;;15.69;81.01;95449.53;5033697;28;985;-68
2022/10/14 01:25:39;;;;;;;;;;;;;;;15.64;81.38;95441.16;5033558;28;997;-67
2022/10/14 01:28:17;;;;;;;;;;;;;;;15.64;81.32;95446.53;5033308;28;1914;-68
2022/10/14 01:30:55;;;;;;;;;;;;;;;15.60;81.41;95440.69;5033332;28;1017;-68
2022/10/14 01:33:23;;;;;;;;;;;;;;;15.53;81.90;95445.13;5033325;28;1154;-67
2022/10/14 01:35:55;;;;;;;;;;;;;;;15.52;81.71;95437.25;5033486;28;1009;-68
2022/10/14 01:38:27;;;;;;;;;;;;;;;15.55;80.86;95436.88;5033276;28;1223;-68
2022/10/14 01:41:03;;;;;;;;;;;;;;;15.49;80.90;95433.03;5033361;28;1060;-68
2022/10/14 01:43:30;;;;;;;;;;;;;;;15.45;81.04;95420.16;5033168;28;1314;-68
2022/10/14 01:45:58;;;;;;;;;;;;;;;15.40;81.04;95426.94;5033092;28;1979;-68
2022/10/14 01:48:32;;;;;;;;;;;;;;;15.42;81.29;95421.31;5033320;28;1036;-68
2022/10/14 01:51:01;;;;;;;;;;;;;;;15.45;81.14;95410.19;5033326;28;1316;-68
2022/10/14 01:53:30;;;;;;;;;;;;;;;15.44;81.46;95411.19;5032991;28;1042;-68
2022/10/14 01:55:57;;;;;;;;;;;;;;;15.48;81.18;95417.06;5033037;28;1084;-68
2022/10/14 01:58:25;;;;;;;;;;;;;;;15.43;80.81;95415.75;5032957;28;1158;-68
2022/10/14 02:00:51;;;;;;;;;;;;;;;15.41;80.74;95408.91;5033359;28;1025;-68
2022/10/14 02:03:18;;;;;;;;;;;;;;;15.39;81.30;95416.31;5033262;28;1026;-68
2022/10/14 02:05:48;;;;;;;;;;;;;;;15.20;82.33;95417.69;5032922;28;1068;-67
2022/10/14 02:08:31;;;;;;;;;;;;;;;15.05;83.31;95414.97;5033025;28;1911;-69
2022/10/14 02:11:15;;;;;;;;;;;;;;;15.29;82.36;95407.66;5032926;28;1061;-68
2022/10/14 02:13:50;;;;;;;;;;;;;;;15.38;81.47;95402.00;5033029;28;946;-68
2022/10/14 02:16:46;;;;;;;;;;;;;;;15.46;81.35;95405.63;5033042;28;978;-68
2022/10/14 02:19:30;;;;;;;;;;;;;;;15.47;80.79;95407.31;5037216;28;1486;-68
2022/10/14 02:22:14;;;;;;;;;;;;;;;15.38;81.05;95396.59;5036987;28;1036;-68
2022/10/14 02:24:43;;;;;;;;;;;;;;;15.32;80.43;95402.75;5036820;28;1013;-68
2022/10/14 02:27:12;;;;;;;;;;;;;;;15.30;80.68;95399.41;5036632;28;1906;-69
2022/10/14 02:29:39;;;;;;;;;;;;;;;15.31;80.68;95398.38;5036458;28;1049;-68
2022/10/14 02:32:07;;;;;;;;;;;;;;;15.27;80.77;95398.94;5036546;28;1078;-68
2022/10/14 02:34:35;;;;;;;;;;;;;;;15.18;81.11;95403.56;5035400;28;969;-68
2022/10/14 02:37:02;;;;;;;;;;;;;;;15.30;81.04;95395.88;5036463;28;1077;-68
2022/10/14 02:39:30;;;;;;;;;;;;;;;15.34;80.48;95387.22;5036467;28;1021;-67
2022/10/14 02:41:56;;;;;;;;;;;;;;;15.34;80.38;95398.00;5036342;28;1096;-68
2022/10/14 02:44:22;;;;;;;;;;;;;;;15.30;79.91;95391.31;5036277;28;938;-68
2022/10/14 02:46:48;;;;;;;;;;;;;;;15.10;81.00;95395.56;5036356;28;1979;-68
2022/10/14 02:49:15;;;;;;;;;;;;;;;15.12;81.38;95391.69;5036194;28;1121;-68
2022/10/14 02:51:41;;;;;;;;;;;;;;;15.27;80.38;95396.22;5036146;28;1301;-68
2022/10/14 02:54:07;;;;;;;;;;;;;;;15.29;80.64;95388.81;5036284;28;1148;-69
2022/10/14 02:56:33;;;;;;;;;;;;;;;15.29;80.38;95400.44;5035997;28;1206;-67
2022/10/14 02:58:59;;;;;;;;;;;;;;;15.23;80.00;95399.31;5035976;28;985;-67
2022/10/14 03:01:25;;;;;;;;;;;;;;;15.20;80.39;95394.28;5036202;28;1045;-67
2022/10/14 03:03:51;;;;;;;;;;;;;;;15.15;80.29;95403.94;5036159;28;1045;-68
2022/10/14 03:06:17;;;;;;;;;;;;;;;15.03;80.71;95390.09;5035864;28;1906;-68
2022/10/14 03:08:43;;;;;;;;;;;;;;;14.86;81.80;95399.34;5035940;28;1048;-68
2022/10/14 03:11:09;;;;;;;;;;;;;;;14.91;81.55;95394.22;5036338;28;1044;-68
2022/10/14 03:13:35;;;;;;;;;;;;;;;14.97;81.48;95394.34;5035679;28;1032;-68
2022/10/14 03:16:01;;;;;;;;;;;;;;;15.14;80.85;95392.34;5035973;28;1041;-68
2022/10/14 03:18:27;;;;;;;;;;;;;;;15.19;80.44;95397.97;5035625;28;1045;-68
2022/10/14 03:20:53;;;;;;;;;;;;;;;15.13;80.45;95397.91;5035819;28;1045;-68
2022/10/14 03:23:20;;;;;;;;;;;;;;;15.09;80.63;95396.59;5035752;28;958;-68
2022/10/14 03:25:46;;;;;;;;;;;;;;;15.11;80.74;95397.25;5035604;28;1056;-68
2022/10/14 03:28:12;;;;;;;;;;;;;;;15.11;80.32;95402.63;5035446;28;1984;-68
2022/10/14 03:30:38;;;;;;;;;;;;;;;15.16;80.50;95405.63;5035489;28;965;-68
2022/10/14 03:33:04;;;;;;;;;;;;;;;15.18;80.42;95398.19;5035325;28;1213;-67
2022/10/14 03:35:30;;;;;;;;;;;;;;;15.08;80.79;95405.69;5035255;28;1061;-68
2022/10/14 03:38:00;;;;;;;;;;;;;;;15.00;81.61;95407.41;5035337;28;1037;-68
2022/10/14 03:40:27;;;;;;;;;;;;;;;14.99;81.82;95396.84;5035290;28;1024;-68
2022/10/14 03:42:53;;;;;;;;;;;;;;;15.07;81.51;95395.94;5035186;28;1049;-68
2022/10/14 03:45:19;;;;;;;;;;;;;;;15.10;81.23;95409.03;5035444;28;1052;-68
2022/10/14 03:47:45;;;;;;;;;;;;;;;15.06;80.67;95400.47;5035150;28;1914;-68
2022/10/14 03:50:11;;;;;;;;;;;;;;;15.06;81.10;95405.84;5035048;28;1301;-67
2022/10/14 03:52:39;;;;;;;;;;;;;;;15.00;81.66;95402.03;5035069;28;966;-68
2022/10/14 03:55:05;;;;;;;;;;;;;;;15.00;81.48;95402.03;5035062;28;1030;-68
2022/10/14 03:57:31;;;;;;;;;;;;;;;15.11;81.55;95405.31;5034820;28;1105;-68
2022/10/14 03:59:57;;;;;;;;;;;;;;;15.13;81.27;95401.41;5035124;28;1027;-68
2022/10/14 04:02:23;;;;;;;;;;;;;;;15.11;81.28;95397.25;5035077;28;1080;-68
2022/10/14 04:04:49;;;;;;;;;;;;;;;15.05;81.81;95403.38;5034844;28;1049;-68
2022/10/14 04:07:15;;;;;;;;;;;;;;;15.15;81.64;95393.16;5034848;28;1910;-68
2022/10/14 04:09:41;;;;;;;;;;;;;;;15.13;81.67;95395.19;5034693;28;1100;-67
2022/10/14 04:12:07;;;;;;;;;;;;;;;15.18;81.69;95392.81;5034571;28;949;-68
2022/10/14 04:14:34;;;;;;;;;;;;;;;15.22;81.24;95389.53;5034814;28;997;-68
2022/10/14 04:17:00;;;;;;;;;;;;;;;15.27;81.29;95391.72;5034784;28;978;-68
2022/10/14 04:19:26;;;;;;;;;;;;;;;15.25;81.23;95388.31;5034637;28;1039;-68
2022/10/14 04:21:52;;;;;;;;;;;;;;;15.25;81.50;95387.50;5034512;28;1037;-68
2022/10/14 04:24:18;;;;;;;;;;;;;;;15.23;81.40;95387.69;5033259;28;1120;-68
2022/10/14 04:26:44;;;;;;;;;;;;;;;15.23;81.67;95395.75;5034132;28;1910;-67
2022/10/14 04:29:11;;;;;;;;;;;;;;;15.27;81.35;95380.94;5034643;28;997;-67
2022/10/14 04:31:37;;;;;;;;;;;;;;;15.29;81.45;95378.88;5034235;28;1158;-68
2022/10/14 04:34:03;;;;;;;;;;;;;;;15.28;81.96;95381.75;5034304;28;1053;-67
2022/10/14 04:36:29;;;;;;;;;;;;;;;15.29;81.66;95381.59;5034212;28;1018;-68
2022/10/14 04:38:55;;;;;;;;;;;;;;;15.28;81.56;95373.69;5034186;28;1077;-67
2022/10/14 04:41:21;;;;;;;;;;;;;;;15.29;81.89;95376.19;5033823;28;981;-67
2022/10/14 04:43:47;;;;;;;;;;;;;;;15.29;82.09;95376.19;5034001;28;962;-67
2022/10/14 04:46:13;;;;;;;;;;;;;;;15.30;81.79;95375.16;5034195;28;1918;-67
2022/10/14 04:48:39;;;;;;;;;;;;;;;15.23;81.85;95368.81;5034031;28;1041;-67
2022/10/14 04:51:05;;;;;;;;;;;;;;;15.22;81.73;95377.94;5033990;28;1323;-68
2022/10/14 04:53:31;;;;;;;;;;;;;;;15.23;81.88;95371.53;5033960;28;1009;-68
2022/10/14 04:55:57;;;;;;;;;;;;;;;15.25;81.87;95371.34;5033874;28;1011;-67
2022/10/14 04:58:23;;;;;;;;;;;;;;;15.26;81.95;95367.66;5034109;28;1037;-68
2022/10/14 05:00:49;;;;;;;;;;;;;;;15.25;81.92;95369.47;5033962;28;986;-68
2022/10/14 05:03:15;;;;;;;;;;;;;;;15.18;81.87;95376.66;5033967;28;1028;-68
2022/10/14 05:05:41;;;;;;;;;;;;;;;15.07;82.34;95366.31;5033712;28;1072;-68
2022/10/14 05:08:07;;;;;;;;;;;;;;;15.09;82.47;95372.34;5033749;28;1910;-67
2022/10/14 05:10:33;;;;;;;;;;;;;;;15.10;82.82;95365.94;5033601;28;1033;-68
2022/10/14 05:12:59;;;;;;;;;;;;;;;15.13;82.56;95379.03;5032441;28;1029;-68
2022/10/14 05:15:25;;;;;;;;;;;;;;;15.08;83.29;95378.75;5033513;28;1050;-67
2022/10/14 05:17:51;;;;;;;;;;;;;;;15.15;82.83;95379.69;5033743;28;974;-68
2022/10/14 05:20:18;;;;;;;;;;;;;;;15.24;82.82;95378.59;5033547;28;1057;-67
2022/10/14 05:22:46;;;;;;;;;;;;;;;15.28;82.30;95376.38;5033460;28;1120;-68
2022/10/14 05:25:13;;;;;;;;;;;;;;;15.27;82.88;95377.38;5033437;28;1180;-68
2022/10/14 05:27:39;;;;;;;;;;;;;;;15.27;82.75;95380.94;5033276;28;1906;-67
2022/10/14 05:30:05;;;;;;;;;;;;;;;15.21;82.85;95387.03;5033410;28;933;-66
2022/10/14 05:32:31;;;;;;;;;;;;;;;15.20;83.20;95382.69;5033230;28;1090;-66
2022/10/14 05:34:57;;;;;;;;;;;;;;;15.25;83.28;95387.50;5033461;28;1031;-66
2022/10/14 05:37:23;;;;;;;;;;;;;;;15.28;83.26;95385.28;5033420;28;1013;-67
2022/10/14 05:39:49;;;;;;;;;;;;;;;15.29;83.03;95389.66;5033272;28;1037;-67
2022/10/14 05:42:15;;;;;;;;;;;;;;;15.27;83.62;95397.09;5033507;28;1060;-68
2022/10/14 05:44:41;;;;;;;;;;;;;;;15.32;83.24;95385.75;5033216;28;1255;-67
2022/10/14 05:47:09;;;;;;;;;;;;;;;15.34;82.89;95394.47;5033321;28;1914;-67
2022/10/14 05:49:35;;;;;;;;;;;;;;;15.27;83.72;95391.72;5033209;28;1256;-67
2022/10/14 05:52:01;;;;;;;;;;;;;;;15.27;83.66;95391.72;5032135;28;980;-66
2022/10/14 05:54:27;;;;;;;;;;;;;;;15.33;83.76;95393.66;5034498;28;1142;-73
2022/10/14 05:56:53;;;;;;;;;;;;;;;15.31;84.11;95392.16;5037202;28;1068;-68
2022/10/14 05:59:19;;;;;;;;;;;;;;;15.10;85.00;95396.41;5037335;28;1020;-68
2022/10/14 06:01:45;;;;;;;;;;;;;;;15.21;84.30;95395.09;5037272;28;1040;-68
2022/10/14 06:04:15;;;;;;;;;;;;;;;15.32;83.92;95410.81;5037243;28;1041;-69
2022/10/14 06:06:41;;;;;;;;;;;;;;;15.36;83.66;95404.03;5036854;28;1898;-69
2022/10/14 06:09:07;;;;;;;;;;;;;;;15.38;83.25;95409.25;5035792;28;1057;-69
2022/10/14 06:11:34;;;;;;;;;;;;;;;15.41;83.35;95414.28;5037096;28;1001;-69
2022/10/14 06:14:00;;;;;;;;;;;;;;;15.32;83.12;95410.81;5037122;28;1051;-69
2022/10/14 06:16:26;;;;;;;;;;;;;;;15.36;83.09;95411.28;5035621;28;1211;-69
2022/10/14 06:18:53;;;;;;;;;;;;;;;15.34;83.54;95414.16;5036807;28;1005;-69
2022/10/14 06:21:19;;;;;;;;;;;;;;;15.33;83.59;95417.06;5036967;28;954;-69
2022/10/14 06:23:45;;;;;;;;;;;;;;;15.23;84.03;95411.91;5036667;28;1066;-68
2022/10/14 06:26:12;;;;;;;;;;;;;;;15.12;84.78;95413.22;5036660;28;1989;-69
2022/10/14 06:28:38;;;;;;;;;;;;;;;15.27;84.00;95417.78;5036526;28;1109;-68
2022/10/14 06:31:05;;;;;;;;;;;;;;;15.34;83.87;95419.56;5036610;28;1085;-69
2022/10/14 06:33:32;;;;;;;;;;;;;;;15.38;83.73;95415.47;5036597;28;974;-69
2022/10/14 06:36:00;;;;;;;;;;;;;;;15.38;83.76;95411.94;5036601;28;986;-68
2022/10/14 06:38:26;;;;;;;;;;;;;;;15.40;83.60;95418.84;5036290;28;1094;-69
2022/10/14 06:40:53;;;;;;;;;;;;;;;15.40;83.82;95413.44;5036669;28;976;-69
2022/10/14 06:43:20;;;;;;;;;;;;;;;15.40;83.83;95421.53;5036350;28;1050;-69
2022/10/14 06:45:47;;;;;;;;;;;;;;;15.45;83.52;95418.28;5036359;28;962;-69
2022/10/14 06:48:13;;;;;;;;;;;;;;;15.43;83.63;95421.16;5035024;28;1973;-69
2022/10/14 06:50:40;;;;;;;;;;;;;;;15.39;83.90;95413.63;5036039;28;1265;-69
2022/10/14 06:53:06;;;;;;;;;;;;;;;15.40;84.05;95415.28;5036167;28;1116;-68
2022/10/14 06:55:33;;;;;;;;;;;;;;;15.41;84.36;95411.59;5036324;28;985;-69
2022/10/14 06:57:59;;;;;;;;;;;;;;;15.39;84.22;95414.47;5036323;28;978;-68
2022/10/14 07:00:26;;;;;;;;;;;;;;;15.10;86.11;95414.41;5036122;28;969;-68
2022/10/14 07:02:53;;;;;;;;;;;;;;;15.20;85.66;95420.38;5035988;28;1262;-69
2022/10/14 07:05:19;;;;;;;;;;;;;;;15.34;85.35;95416.84;5035505;28;969;-69
2022/10/14 07:07:45;;;;;;;;;;;;;;;15.42;85.04;95418.63;5035769;28;1902;-69
2022/10/14 07:10:12;;;;;;;;;;;;;;;15.45;84.81;95420.97;5036124;28;966;-69
2022/10/14 07:12:39;;;;;;;;;;;;;;;15.48;84.75;95419.75;5035953;28;1030;-70
2022/10/14 07:15:05;;;;;;;;;;;;;;;15.47;84.48;95423.47;5035794;28;1097;-70
2022/10/14 07:17:32;;;;;;;;;;;;;;;15.46;84.70;95424.50;5034488;28;1077;-70
2022/10/14 07:19:58;;;;;;;;;;;;;;;15.48;84.63;95415.22;5036115;28;1046;-70
2022/10/14 07:22:24;;;;;;;;;;;;;;;15.50;84.27;95423.97;5035583;28;1128;-69
2022/10/14 07:24:51;;;;;;;;;;;;;;;15.51;84.28;95430.16;5035609;28;1046;-69
2022/10/14 07:27:19;;;;;;;;;;;;;;;15.55;84.61;95428.78;5035714;28;1910;-69
2022/10/14 07:29:45;;;;;;;;;;;;;;;15.56;84.40;95417.81;5034456;28;1032;-69
2022/10/14 07:32:12;;;;;;;;;;;;;;;15.58;84.29;95420.34;5035872;28;1094;-69
2022/10/14 07:34:38;;;;;;;;;;;;;;;15.61;83.73;95411.84;5035406;28;1029;-68
2022/10/14 07:37:05;;;;;;;;;;;;;;;15.57;84.26;95419.47;5035358;28;1120;-69
2022/10/14 07:39:31;;;;;;;;;;;;;;;15.58;83.84;95421.16;5035278;28;1054;-69
2022/10/14 07:42:00;;;;;;;;;;;;;;;15.58;84.01;95423.84;5035545;28;1029;-69
2022/10/14 07:44:27;;;;;;;;;;;;;;;15.61;83.13;95417.25;5035266;28;1040;-68
2022/10/14 07:46:54;;;;;;;;;;;;;;;15.62;83.34;95419.75;5035161;28;1983;-69
2022/10/14 07:49:21;;;;;;;;;;;;;;;15.57;83.42;95424.03;5035228;28;1060;-69
2022/10/14 07:51:47;;;;;;;;;;;;;;;15.56;83.13;95427.78;5014034;28;1040;-70
2022/10/14 07:54:21;;;;;;;;;;;;;;;15.59;81.87;95430.94;5015267;28;1092;-70
2022/10/14 07:56:48;;;;;;;;;;;;;;;15.62;82.79;95425.16;5015140;28;1029;-70
2022/10/14 07:59:15;;;;;;;;;;;;;;;15.62;82.85;95413.53;5015339;28;985;-69
2022/10/14 08:01:42;;;;;;;;;;;;;;;15.64;81.34;95416.88;5015160;28;1048;-69
2022/10/14 08:04:10;;;;;;;;;;;;;;;15.68;82.29;95420.06;5015069;28;1050;-68
2022/10/14 08:06:37;;;;;;;;;;;;;;;15.71;82.04;95415.13;5015189;28;1991;-69
2022/10/14 08:09:04;;;;;;;;;;;;;;;15.70;82.51;95416.13;5015256;28;1063;-68
2022/10/14 08:11:33;;;;;;;;;;;;;;;15.71;82.16;95417.81;5014895;28;1057;-69
2022/10/14 08:13:59;;;;;;;;;;;;;;;15.74;82.65;95420.16;5015037;28;950;-68
2022/10/14 08:16:27;;;;;;;;;;;;;;;15.72;82.47;95416.78;5014184;28;1000;-68
2022/10/14 08:18:57;;;;;;;;;;;;;;;15.62;83.01;95413.53;5014628;28;1048;-68
2022/10/14 08:21:24;;;;;;;;;;;;;;;15.67;83.47;95416.53;5014944;28;1012;-69
2022/10/14 08:23:52;;;;;;;;;;;;;;;15.77;82.69;95425.19;5015091;28;1040;-68
2022/10/14 08:26:18;;;;;;;;;;;;;;;15.79;82.57;95422.31;5014751;28;1906;-69
2022/10/14 08:28:44;;;;;;;;;;;;;;;15.86;82.62;95428.63;5014552;28;1080;-68
2022/10/14 08:31:11;;;;;;;;;;;;;;;15.87;83.20;95422.19;5014579;28;1139;-70
2022/10/14 08:33:38;;;;;;;;;;;;;;;15.86;83.19;95425.06;5014462;28;1072;-69
2022/10/14 08:36:07;;;;;;;;;;;;;;;15.88;83.84;95431.97;5014516;28;1093;-68
2022/10/14 08:38:33;;;;;;;;;;;;;;;15.88;82.64;95428.41;5014492;28;1118;-69
2022/10/14 08:41:22;;;;;;;;;;;;;;;15.93;82.47;95432.22;5014581;28;1013;-69
2022/10/14 08:43:57;;;;;;;;;;;;;;;15.79;82.40;95436.63;5014411;28;993;-68
2022/10/14 08:46:35;;;;;;;;;;;;;;;15.80;81.49;95430.22;5014251;28;1911;-68
2022/10/14 08:49:05;;;;;;;;;;;;;;;15.92;81.42;95422.47;5014491;28;1055;-68
2022/10/14 08:51:32;;;;;;;;;;;;;;;15.93;82.11;95423.31;5032038;28;1261;-68
2022/10/14 08:54:05;;;;;;;;;;;;;;;16.00;81.68;95433.16;5034032;28;1050;-68
2022/10/14 08:56:34;;;;;;;;;;;;;;;16.06;81.74;95428.06;5032641;28;1036;-69
2022/10/14 08:59:04;;;;;;;;;;;;;;;16.08;81.42;95426.81;5034077;28;973;-69
2022/10/14 09:01:31;;;;;;;;;;;;;;;15.98;81.52;95435.22;5033922;28;1004;-69
2022/10/14 09:04:04;;;;;;;;;;;;;;;16.00;79.62;95433.16;5033796;28;1053;-69
2022/10/14 09:06:35;;;;;;;;;;;;;;;15.99;78.24;95430.66;5033715;28;1909;-69
2022/10/14 09:09:11;;;;;;;;;;;;;;;16.13;77.31;95424.41;5033646;28;1010;-69
2022/10/14 09:11:41;;;;;;;;;;;;;;;16.22;78.63;95427.84;5033787;28;1044;-68
2022/10/14 09:14:12;;;;;;;;;;;;;;;16.30;79.31;95426.88;5033617;28;1073;-69
2022/10/14 09:16:40;;;;;;;;;;;;;;;16.35;77.38;95424.44;5033675;28;958;-69
2022/10/14 09:19:38;;;;;;;;;;;;;;;16.44;76.40;95420.59;5033549;28;1109;-69
2022/10/14 09:22:11;;;;;;;;;;;;;;;16.61;77.09;95417.66;5010887;28;1379;-69
2022/10/14 09:24:37;;;;;;;;;;;;;;;16.66;77.64;95420.63;5033695;28;1046;-69
2022/10/14 09:27:05;;;;;;;;;;;;;;;16.66;77.63;95423.34;5033531;28;1902;-68
2022/10/14 09:29:50;;;;;;;;;;;;;;;16.71;75.56;95416.34;5033284;28;965;-69
2022/10/14 09:32:22;;;;;;;;;;;;;;;16.77;75.66;95410.16;5033243;28;1159;-68
2022/10/14 09:34:50;;;;;;;;;;;;;;;16.77;75.66;95404.75;5032213;28;1052;-69
2022/10/14 09:37:19;;;;;;;;;;;;;;;16.90;76.25;95414.88;5033492;28;974;-69
2022/10/14 09:39:46;;;;;;;;;;;;;;;16.94;75.65;95401.78;5033355;28;977;-69
2022/10/14 09:42:17;;;;;;;;;;;;;;;17.00;75.46;95411.00;5033370;28;996;-68
2022/10/14 09:44:43;;;;;;;;;;;;;;;16.98;73.35;95401.22;5033522;28;996;-69
2022/10/14 09:47:15;;;;;;;;;;;;;;;16.94;74.37;95402.66;5033046;28;1992;-69
2022/10/14 09:49:46;;;;;;;;;;;;;;;16.88;75.16;95411.50;5033227;28;1241;-69
2022/10/14 09:52:22;;;;;;;;;;;;;;;16.85;73.98;95411.09;5033280;28;997;-69
2022/10/14 09:54:56;;;;;;;;;;;;;;;16.83;70.94;95407.72;5033211;28;1020;-69
2022/10/14 09:57:23;;;;;;;;;;;;;;;16.74;71.02;95407.84;5033122;28;982;-69
2022/10/14 09:59:53;;;;;;;;;;;;;;;16.67;70.12;95411.50;5033317;28;1012;-69
2022/10/14 10:02:24;;;;;;;;;;;;;;;16.66;68.95;95412.53;5033270;28;966;-69
2022/10/14 10:04:53;;;;;;;;;;;;;;;16.66;71.11;95407.13;5033223;28;1048;-69
2022/10/14 10:07:30;;;;;;;;;;;;;;;16.73;70.98;95402.63;5032980;28;1910;-69
2022/10/14 10:10:01;;;;;;;;;;;;;;;16.85;71.31;95406.50;5033250;28;1033;-69
2022/10/14 10:12:34;;;;;;;;;;;;;;;16.87;72.14;95404.47;5032941;28;1057;-69
2022/10/14 10:15:02;;;;;;;;;;;;;;;16.88;72.92;95406.09;5036212;28;1286;-69
2022/10/14 10:17:31;;;;;;;;;;;;;;;16.94;71.72;95404.50;5032960;28;1020;-68
2022/10/14 10:20:09;;;;;;;;;;;;;;;17.03;72.15;95397.94;5032966;28;941;-68
2022/10/14 10:22:38;;;;;;;;;;;;;;;17.05;69.30;95397.75;5033056;28;1022;-68
2022/10/14 10:25:07;;;;;;;;;;;;;;;16.96;67.67;95392.50;5032839;28;1115;-69
2022/10/14 10:27:38;;;;;;;;;;;;;;;16.96;67.34;95386.25;5032828;28;1974;-69
2022/10/14 10:30:18;;;;;;;;;;;;;;;16.99;69.84;95380.44;5032832;28;1081;-69
2022/10/14 10:32:50;;;;;;;;;;;;;;;17.08;68.43;95378.44;5032507;28;1105;-69
2022/10/14 10:35:31;;;;;;;;;;;;;;;17.07;68.69;95377.59;5033215;28;1088;-69
2022/10/14 10:38:06;;;;;;;;;;;;;;;17.05;68.30;95368.03;5032862;28;958;-69
2022/10/14 10:40:38;;;;;;;;;;;;;;;17.03;67.46;95370.91;5034199;28;982;-69
2022/10/14 10:43:27;;;;;;;;;;;;;;;16.94;67.44;95367.53;5036387;28;989;-69
2022/10/14 10:46:11;;;;;;;;;;;;;;;16.86;67.12;95366.84;5036385;28;1117;-69
2022/10/14 10:48:45;;;;;;;;;;;;;;;16.88;69.61;95362.06;5036301;28;962;-69
2022/10/14 10:51:29;;;;;;;;;;;;;;;16.95;69.80;95363.78;5036228;28;1451;-69
2022/10/14 10:54:13;;;;;;;;;;;;;;;16.99;69.82;95361.53;5036483;28;1053;-69
2022/10/14 10:56:52;;;;;;;;;;;;;;;16.96;68.99;95354.69;5036111;28;1049;-69
2022/10/14 10:59:18;;;;;;;;;;;;;;;16.98;70.59;95360.72;5036240;28;1044;-70
2022/10/14 11:02:02;;;;;;;;;;;;;;;17.08;68.24;95359.53;5035945;28;1077;-69
2022/10/14 11:04:36;;;;;;;;;;;;;;;17.08;68.45;95351.44;5036143;28;1050;-69
2022/10/14 11:13:05;;;;;;;;;;;;;;;17.15;67.30;95338.81;5036126;28;1009;-69
2022/10/14 11:15:52;;;;;;;;;;;;;;;17.17;66.90;95334.06;5035951;28;978;-69
2022/10/14 11:18:26;;;;;;;;;;;;;;;17.20;69.09;95330.09;5035754;28;1125;-69
2022/10/14 11:20:55;;;;;;;;;;;;;;;17.14;67.04;95335.25;5035699;28;1069;-69
2022/10/14 11:23:39;;;;;;;;;;;;;;;17.16;70.19;95325.09;5034494;28;1232;-69
2022/10/14 11:26:23;;;;;;;;;;;;;;;17.16;69.44;95327.78;5035696;28;1100;-69
2022/10/14 11:28:54;;;;;;;;;;;;;;;17.11;64.76;95324.00;5035582;28;1041;-69
2022/10/14 11:31:25;;;;;;;;;;;;;;;17.07;67.43;95317.34;5035435;28;1086;-70
2022/10/14 11:33:54;;;;;;;;;;;;;;;17.15;67.71;95309.94;5035730;28;1033;-69
2022/10/14 11:36:56;;;;;;;;;;;;;;;17.16;67.01;95311.59;5035615;28;1017;-69
2022/10/14 11:39:40;;;;;;;;;;;;;;;17.12;68.26;95307.63;4993754;28;1400;-69
2022/10/14 11:42:12;;;;;;;;;;;;;;;17.16;68.90;95310.75;5032355;28;1113;-69
2022/10/14 11:44:40;;;;;;;;;;;;;;;17.20;69.05;95303.09;5035412;28;1033;-69
2022/10/14 11:47:23;;;;;;;;;;;;;;;17.20;68.91;95306.63;5035318;28;1993;-69
2022/10/14 11:49:58;;;;;;;;;;;;;;;17.25;67.62;95309.56;5035078;28;1256;-69
2022/10/14 11:52:51;;;;;;;;;;;;;;;17.27;68.78;95298.56;5034985;28;1214;-69
2022/10/14 11:55:19;;;;;;;;;;;;;;;17.32;66.97;95304.19;5041508;28;1072;-69
2022/10/14 11:57:57;;;;;;;;;;;;;;;17.30;67.90;95301.72;5034981;28;1061;-68
2022/10/14 12:00:25;;;;;;;;;;;;;;;17.30;67.21;95299.00;5034980;28;1060;-69
2022/10/14 12:02:57;;;;;;;;;;;;;;;17.27;66.39;95298.56;5033822;28;1061;-69
2022/10/14 12:05:26;;;;;;;;;;;;;;;17.20;66.50;95301.22;5035013;28;1128;-69
2022/10/14 12:07:52;;;;;;;;;;;;;;;17.20;66.41;95303.09;5034925;28;1926;-69
2022/10/14 12:10:18;;;;;;;;;;;;;;;17.18;67.24;95301.41;5034915;28;1033;-69
2022/10/14 12:12:44;;;;;;;;;;;;;;;17.18;67.33;95298.72;5034608;28;1108;-69
2022/10/14 12:15:19;;;;;;;;;;;;;;;17.11;64.91;95297.00;5034660;28;1037;-69
2022/10/14 12:17:49;;;;;;;;;;;;;;;17.01;66.64;95293.81;5034813;28;1061;-70
2022/10/14 12:20:25;;;;;;;;;;;;;;;17.12;67.50;95293.28;5035065;28;1068;-71
2022/10/14 12:22:52;;;;;;;;;;;;;;;17.05;65.25;95298.63;5034671;28;1126;-68
2022/10/14 12:25:20;;;;;;;;;;;;;;;17.11;67.73;95292.44;5034510;28;1037;-68
2022/10/14 12:27:47;;;;;;;;;;;;;;;17.13;68.51;95294.94;5034244;28;1910;-68
2022/10/14 12:30:33;;;;;;;;;;;;;;;17.10;67.48;95292.66;5034642;28;1037;-69
2022/10/14 12:33:01;;;;;;;;;;;;;;;16.95;65.27;95284.66;5034224;28;1082;-68
2022/10/14 12:35:46;;;;;;;;;;;;;;;16.98;67.71;95293.19;5034359;28;965;-68
2022/10/14 12:38:12;;;;;;;;;;;;;;;17.10;69.25;95289.94;5034164;28;1009;-69
2022/10/14 12:40:39;;;;;;;;;;;;;;;17.05;67.57;95292.41;5034090;28;1229;-68
2022/10/14 12:43:23;;;;;;;;;;;;;;;17.02;67.53;95287.41;5034345;28;1052;-69
2022/10/14 12:46:00;;;;;;;;;;;;;;;16.97;66.45;95288.81;5034115;28;1230;-69
2022/10/14 12:48:30;;;;;;;;;;;;;;;16.97;66.03;95288.81;5033858;28;1903;-69
2022/10/14 12:51:10;;;;;;;;;;;;;;;16.83;66.14;95286.22;5034221;28;1371;-68
2022/10/14 12:53:38;;;;;;;;;;;;;;;16.91;67.60;95292.31;5034137;28;1040;-69
2022/10/14 12:56:04;;;;;;;;;;;;;;;17.03;68.52;95291.75;5034076;28;1022;-68
2022/10/14 12:58:33;;;;;;;;;;;;;;;17.08;68.55;95283.91;5034324;28;1053;-69
2022/10/14 13:01:03;;;;;;;;;;;;;;;17.07;68.35;95279.53;5033756;28;1177;-69
2022/10/14 13:03:31;;;;;;;;;;;;;;;16.98;67.69;95286.97;5033540;28;1100;-69
2022/10/14 13:06:17;;;;;;;;;;;;;;;17.09;68.21;95280.16;5032835;28;1041;-69
2022/10/14 13:09:03;;;;;;;;;;;;;;;17.01;67.07;95275.75;5033613;28;1264;-69
2022/10/14 13:11:29;;;;;;;;;;;;;;;16.95;68.28;95279.25;5033478;28;1083;-69
2022/10/14 13:14:00;;;;;;;;;;;;;;;17.05;68.67;95277.00;5033633;28;1061;-69
2022/10/14 13:16:26;;;;;;;;;;;;;;;17.06;66.92;95278.69;5033799;28;985;-69